createdAt,value
2022-10-29T00:01:39.709Z,84.74
2022-10-29T00:04:09.421Z,84.88
2022-10-29T00:06:38.916Z,83.54
2022-10-29T00:09:11.553Z,84.41
2022-10-29T00:11:40.819Z,84.98
2022-10-29T00:14:10.344Z,84.96
2022-10-29T00:16:41.192Z,86.74
2022-10-29T00:19:10.822Z,86.08
2022-10-29T00:21:40.506Z,85.22
2022-10-29T00:24:12.632Z,86.04
2022-10-29T00:26:41.827Z,85.39
2022-10-29T00:29:11.474Z,85.40
2022-10-29T00:31:40.722Z,85.14
2022-10-29T00:34:10.129Z,85.26
2022-10-29T00:36:39.666Z,86.08
2022-10-29T00:39:08.856Z,86.60
2022-10-29T00:41:39.616Z,85.92
2022-10-29T00:44:31.047Z,85.31
2022-10-29T00:47:12.070Z,85.45
2022-10-29T00:49:43.931Z,86.29
2022-10-29T00:52:14.806Z,85.00
2022-10-29T00:54:47.650Z,86.02
2022-10-29T00:57:21.909Z,85.12
2022-10-29T00:59:52.085Z,86.18
2022-10-29T01:02:21.745Z,85.75
2022-10-29T01:04:53.248Z,85.68
2022-10-29T01:07:23.573Z,85.63
2022-10-29T01:09:53.287Z,85.20
2022-10-29T01:12:44.593Z,84.55
2022-10-29T01:15:23.450Z,85.01
2022-10-29T01:18:06.500Z,84.89
2022-10-29T01:21:09.327Z,85.01
2022-10-29T01:23:57.651Z,85.40
2022-10-29T01:27:00.731Z,85.94
2022-10-29T01:29:46.813Z,85.59
2022-10-29T01:32:22.848Z,86.19
2022-10-29T01:34:59.694Z,85.19
2022-10-29T01:37:40.008Z,85.79
2022-10-29T01:40:19.046Z,85.15
2022-10-29T01:42:54.524Z,85.70
2022-10-29T01:45:28.114Z,85.21
2022-10-29T01:48:01.803Z,84.84
2022-10-29T01:50:31.325Z,85.34
2022-10-29T01:53:02.217Z,85.18
2022-10-29T01:55:35.298Z,85.40
2022-10-29T01:58:05.445Z,85.39
2022-10-29T02:00:49.267Z,85.69
2022-10-29T02:03:31.769Z,85.21
2022-10-29T02:06:12.639Z,85.02
2022-10-29T02:08:53.267Z,84.92
2022-10-29T02:11:27.591Z,84.63
2022-10-29T02:14:03.634Z,85.26
2022-10-29T02:16:34.412Z,85.49
2022-10-29T02:19:06.641Z,84.79
2022-10-29T02:21:35.814Z,85.75
2022-10-29T02:24:05.595Z,85.33
2022-10-29T02:26:34.890Z,85.56
2022-10-29T02:29:04.099Z,85.17
2022-10-29T02:36:38.111Z,85.44
2022-10-29T02:39:07.383Z,84.54
2022-10-29T02:41:36.889Z,84.85
2022-10-29T02:44:06.318Z,85.20
2022-10-29T02:46:39.769Z,85.26
2022-10-29T02:49:09.515Z,85.30
2022-10-29T02:51:40.760Z,85.08
2022-10-29T02:54:10.280Z,86.34
2022-10-29T02:56:39.547Z,87.73
2022-10-29T02:59:11.708Z,86.34
2022-10-29T03:01:41.646Z,86.20
2022-10-29T03:04:12.826Z,86.47
2022-10-29T03:06:43.790Z,88.55
2022-10-29T03:09:13.106Z,85.71
2022-10-29T03:11:42.466Z,86.31
2022-10-29T03:14:11.837Z,85.66
2022-10-29T03:16:41.260Z,85.12
2022-10-29T03:19:10.725Z,85.14
2022-10-29T03:21:40.172Z,84.57
2022-10-29T03:24:10.945Z,83.39
2022-10-29T03:26:40.696Z,81.53
2022-10-29T03:29:09.997Z,81.25
2022-10-29T03:31:39.213Z,81.84
2022-10-29T03:34:08.585Z,81.81
2022-10-29T03:36:37.813Z,80.85
2022-10-29T03:39:07.121Z,80.90
2022-10-29T03:41:38.128Z,80.88
2022-10-29T03:44:07.587Z,80.71
2022-10-29T03:46:37.112Z,79.36
2022-10-29T03:49:06.559Z,80.60
2022-10-29T03:51:35.775Z,81.08
2022-10-29T03:54:05.570Z,80.80
2022-10-29T03:56:36.281Z,79.08
2022-10-29T03:59:05.862Z,79.77
2022-10-29T04:01:35.470Z,79.95
2022-10-29T04:04:05.095Z,79.11
2022-10-29T04:06:34.959Z,78.98
2022-10-29T04:09:04.593Z,79.75
2022-10-29T04:11:33.813Z,80.63
2022-10-29T04:14:04.767Z,79.56
2022-10-29T04:16:34.577Z,79.91
2022-10-29T04:19:04.074Z,79.99
2022-10-29T04:30:02.903Z,80.76
2022-10-29T04:32:32.515Z,80.26
2022-10-29T04:35:01.749Z,79.95
2022-10-29T04:37:31.484Z,80.32
2022-10-29T04:40:00.949Z,80.19
2022-10-29T04:42:30.183Z,80.13
2022-10-29T04:44:59.546Z,80.30
2022-10-29T04:47:30.622Z,80.38
2022-10-29T04:49:59.808Z,79.55
2022-10-29T04:52:29.448Z,80.33
2022-10-29T04:54:58.726Z,80.44
2022-10-29T04:57:28.182Z,82.11
2022-10-29T04:59:57.421Z,81.16
2022-10-29T05:02:26.825Z,81.54
2022-10-29T05:04:57.629Z,82.22
2022-10-29T05:07:27.232Z,82.81
2022-10-29T05:09:56.436Z,82.96
2022-10-29T05:12:25.922Z,82.72
2022-10-29T05:14:55.141Z,82.49
2022-10-29T05:17:24.650Z,82.43
2022-10-29T05:19:53.967Z,83.26
2022-10-29T05:22:24.966Z,82.21
2022-10-29T05:24:54.284Z,82.26
2022-10-29T05:27:23.810Z,82.98
2022-10-29T05:29:53.168Z,82.82
2022-10-29T05:32:22.642Z,82.71
2022-10-29T05:34:51.998Z,82.73
2022-10-29T05:37:25.701Z,82.22
2022-10-29T05:39:55.018Z,81.53
2022-10-29T05:42:24.620Z,82.06
2022-10-29T05:44:53.817Z,82.12
2022-10-29T05:47:23.266Z,82.26
2022-10-29T05:49:52.571Z,81.65
2022-10-29T05:52:21.997Z,81.64
2022-10-29T05:54:52.764Z,81.88
2022-10-29T05:57:22.225Z,82.02
2022-10-29T05:59:51.530Z,81.35
2022-10-29T06:02:21.210Z,81.85
2022-10-29T06:04:50.632Z,82.45
2022-10-29T06:07:20.052Z,81.61
2022-10-29T06:09:49.346Z,81.43
2022-10-29T06:12:20.201Z,81.42
2022-10-29T06:14:49.492Z,82.16
2022-10-29T06:17:19.011Z,82.00
2022-10-29T06:19:48.289Z,81.65
2022-10-29T06:22:17.696Z,81.18
2022-10-29T06:24:47.002Z,81.43
2022-10-29T06:27:16.769Z,80.89
2022-10-29T06:29:47.470Z,81.08
2022-10-29T06:32:16.937Z,80.10
2022-10-29T06:34:46.222Z,80.41
2022-10-29T06:37:15.938Z,81.25
2022-10-29T06:39:45.251Z,80.70
2022-10-29T06:42:14.980Z,80.07
2022-10-29T06:44:44.201Z,80.16
2022-10-29T06:47:15.029Z,78.90
2022-10-29T06:49:44.603Z,77.64
2022-10-29T06:52:14.128Z,76.64
2022-10-29T06:54:43.536Z,74.89
2022-10-29T06:57:12.967Z,74.64
2022-10-29T06:59:42.134Z,74.31
2022-10-29T07:02:15.099Z,74.19
2022-10-29T07:04:45.129Z,73.59
2022-10-29T07:07:14.789Z,73.50
2022-10-29T07:09:44.114Z,72.69
2022-10-29T07:12:13.523Z,72.67
2022-10-29T07:14:42.724Z,72.99
2022-10-29T07:17:12.417Z,72.55
2022-10-29T07:19:43.093Z,71.93
2022-10-29T07:22:12.692Z,71.48
2022-10-29T07:24:41.945Z,71.26
2022-10-29T07:27:11.415Z,71.06
2022-10-29T07:29:40.969Z,70.75
2022-10-29T07:32:10.325Z,70.87
2022-10-29T07:34:39.850Z,70.25
2022-10-29T07:37:10.516Z,70.19
2022-10-29T07:39:40.036Z,69.67
2022-10-29T07:42:09.620Z,69.55
2022-10-29T07:44:39.051Z,68.39
2022-10-29T07:47:08.324Z,69.39
2022-10-29T07:49:37.967Z,68.28
2022-10-29T07:52:07.431Z,67.93
2022-10-29T07:54:38.431Z,67.54
2022-10-29T07:57:07.623Z,67.04
2022-10-29T07:59:36.982Z,65.57
2022-10-29T08:02:06.461Z,66.63
2022-10-29T08:04:35.851Z,66.50
2022-10-29T08:07:05.557Z,66.31
2022-10-29T08:09:34.785Z,66.54
2022-10-29T08:12:07.195Z,66.05
2022-10-29T08:14:36.750Z,66.04
2022-10-29T08:17:06.061Z,66.64
2022-10-29T08:19:35.269Z,66.06
2022-10-29T08:22:04.779Z,65.99
2022-10-29T08:24:34.117Z,65.89
2022-10-29T08:27:05.154Z,66.13
2022-10-29T08:29:34.461Z,66.77
2022-10-29T08:32:03.990Z,66.63
2022-10-29T08:34:33.182Z,66.67
2022-10-29T08:37:03.233Z,66.14
2022-10-29T08:39:32.517Z,65.96
2022-10-29T08:42:16.071Z,65.78
2022-10-29T08:45:06.409Z,65.93
2022-10-29T08:47:45.559Z,66.15
2022-10-29T08:50:21.970Z,66.07
2022-10-29T08:53:04.898Z,65.43
2022-10-29T08:55:42.173Z,64.24
2022-10-29T08:58:25.330Z,65.03
2022-10-29T09:00:58.332Z,64.68
2022-10-29T09:03:29.965Z,63.50
2022-10-29T09:06:10.856Z,61.45
2022-10-29T09:08:54.899Z,60.31
2022-10-29T09:11:38.419Z,58.46
2022-10-29T09:14:32.454Z,60.29
2022-10-29T09:17:11.608Z,61.21
2022-10-29T09:20:00.772Z,61.44
2022-10-29T09:22:38.264Z,62.70
2022-10-29T09:25:17.061Z,63.33
2022-10-29T09:27:55.696Z,63.04
2022-10-29T09:30:32.487Z,61.91
2022-10-29T09:33:07.549Z,61.33
2022-10-29T09:35:40.009Z,60.58
2022-10-29T09:38:15.501Z,61.32
2022-10-29T09:40:45.816Z,60.81
2022-10-29T09:43:25.238Z,61.19
2022-10-29T09:46:02.594Z,62.35
2022-10-29T09:48:38.067Z,62.15
2022-10-29T09:51:22.068Z,63.13
2022-10-29T09:53:52.444Z,62.12
2022-10-29T09:56:22.130Z,61.86
2022-10-29T09:58:58.462Z,61.40
2022-10-29T10:01:29.323Z,61.83
2022-10-29T10:04:17.041Z,61.37
2022-10-29T10:07:05.666Z,61.01
2022-10-29T10:10:02.690Z,60.75
2022-10-29T10:12:47.409Z,60.35
2022-10-29T10:15:29.921Z,60.67
2022-10-29T10:18:03.127Z,60.30
2022-10-29T10:20:36.368Z,60.01
2022-10-29T10:23:22.310Z,59.30
2022-10-29T10:25:58.806Z,59.61
2022-10-29T10:28:34.620Z,59.23
2022-10-29T10:31:14.144Z,59.62
2022-10-29T10:33:53.816Z,59.83
2022-10-29T10:36:25.989Z,59.83
2022-10-29T10:38:59.035Z,60.80
2022-10-29T10:41:31.496Z,60.30
2022-10-29T10:44:03.476Z,60.14
2022-10-29T10:46:35.847Z,59.91
2022-10-29T10:49:13.602Z,59.70
2022-10-29T10:51:47.604Z,60.36
2022-10-29T10:54:31.404Z,59.34
2022-10-29T10:57:02.996Z,59.26
2022-10-29T10:59:46.535Z,59.15
2022-10-29T11:02:26.527Z,59.28
2022-10-29T11:05:05.173Z,60.07
2022-10-29T11:07:41.647Z,59.07
2022-10-29T11:10:16.111Z,59.52
2022-10-29T11:12:51.189Z,59.32
2022-10-29T11:15:30.698Z,59.46
2022-10-29T11:18:05.938Z,59.72
2022-10-29T11:20:37.712Z,58.67
2022-10-29T11:23:30.634Z,57.64
2022-10-29T11:26:09.153Z,57.19
2022-10-29T11:28:42.895Z,57.35
2022-10-29T11:31:19.988Z,56.43
2022-10-29T11:33:58.414Z,56.56
2022-10-29T11:36:32.842Z,55.17
2022-10-29T11:39:10.209Z,54.94
2022-10-29T11:41:46.298Z,54.38
2022-10-29T11:44:20.784Z,54.31
2022-10-29T11:47:08.400Z,53.69
2022-10-29T11:49:53.270Z,52.45
2022-10-29T11:52:35.965Z,51.89
2022-10-29T11:55:29.973Z,44.74
2022-10-29T11:58:05.027Z,42.36
2022-10-29T12:00:49.419Z,44.74
2022-10-29T12:03:34.129Z,45.16
2022-10-29T12:06:15.442Z,42.30
2022-10-29T12:08:59.751Z,43.06
2022-10-29T12:11:43.054Z,43.93
2022-10-29T12:14:24.422Z,42.98
2022-10-29T12:17:01.029Z,43.50
2022-10-29T12:19:43.508Z,45.16
2022-10-29T12:22:26.043Z,45.11
2022-10-29T12:25:15.317Z,45.78
2022-10-29T12:27:59.156Z,43.19
2022-10-29T12:30:31.747Z,44.75
2022-10-29T12:33:06.707Z,46.60
2022-10-29T12:35:43.945Z,48.08
2022-10-29T12:38:28.074Z,50.78
2022-10-29T12:41:07.598Z,51.65
2022-10-29T12:43:40.119Z,52.89
2022-10-29T12:46:21.749Z,52.47
2022-10-29T12:49:09.656Z,52.39
2022-10-29T12:51:46.929Z,52.27
2022-10-29T12:54:35.880Z,52.45
2022-10-29T12:57:35.578Z,52.62
2022-10-29T13:00:33.869Z,52.80
2022-10-29T13:03:03.998Z,53.57
2022-10-29T13:05:42.650Z,53.97
2022-10-29T13:08:36.385Z,54.04
2022-10-29T13:11:24.543Z,54.80
2022-10-29T13:14:03.445Z,55.06
2022-10-29T13:16:33.578Z,54.15
2022-10-29T13:19:29.952Z,54.41
2022-10-29T13:21:59.838Z,54.77
2022-10-29T13:24:31.021Z,53.74
2022-10-29T13:27:03.301Z,53.73
2022-10-29T13:29:46.291Z,54.28
2022-10-29T13:32:35.736Z,54.08
2022-10-29T13:35:27.322Z,54.44
2022-10-29T13:37:58.207Z,54.94
2022-10-29T13:41:05.072Z,55.48
2022-10-29T13:43:34.467Z,55.38
2022-10-29T13:46:29.914Z,55.76
2022-10-29T13:49:01.272Z,56.17
2022-10-29T13:51:36.153Z,56.66
2022-10-29T13:54:10.317Z,56.12
2022-10-29T13:56:47.266Z,55.82
2022-10-29T13:59:26.521Z,56.28
2022-10-29T14:02:17.475Z,56.48
2022-10-29T14:04:53.366Z,57.09
2022-10-29T14:07:30.347Z,56.94
2022-10-29T14:10:08.146Z,57.08
2022-10-29T14:12:39.622Z,56.68
2022-10-29T14:15:12.089Z,56.99
2022-10-29T14:17:43.614Z,56.76
2022-10-29T14:20:24.721Z,56.10
2022-10-29T14:22:54.629Z,56.57
2022-10-29T14:25:33.637Z,56.66
2022-10-29T14:28:20.803Z,56.43
2022-10-29T14:31:00.005Z,56.44
2022-10-29T14:33:32.975Z,55.47
2022-10-29T14:36:10.226Z,56.11
2022-10-29T14:38:44.489Z,56.44
2022-10-29T14:41:15.916Z,56.02
2022-10-29T14:43:47.066Z,56.72
2022-10-29T14:46:26.423Z,57.37
2022-10-29T14:49:04.328Z,57.80
2022-10-29T14:51:40.093Z,57.64
2022-10-29T14:54:18.407Z,57.29
2022-10-29T14:56:52.021Z,57.88
2022-10-29T14:59:28.084Z,57.97
2022-10-29T15:02:17.419Z,58.56
2022-10-29T15:05:02.985Z,58.77
2022-10-29T15:07:37.289Z,58.65
2022-10-29T15:10:24.518Z,58.55
2022-10-29T15:12:55.407Z,59.46
2022-10-29T15:15:28.884Z,59.94
2022-10-29T15:18:02.871Z,59.87
2022-10-29T15:20:46.682Z,59.58
2022-10-29T15:23:21.633Z,59.62
2022-10-29T15:25:54.241Z,60.19
2022-10-29T15:28:27.192Z,59.49
2022-10-29T15:31:07.419Z,59.95
2022-10-29T15:33:38.368Z,59.75
2022-10-29T15:36:09.916Z,59.86
2022-10-29T15:39:18.865Z,60.72
2022-10-29T15:41:53.919Z,60.52
2022-10-29T15:44:32.969Z,61.49
2022-10-29T15:47:04.030Z,61.44
2022-10-29T15:49:33.270Z,62.17
2022-10-29T15:52:04.789Z,62.01
2022-10-29T15:54:35.800Z,62.13
2022-10-29T15:57:05.775Z,62.44
2022-10-29T15:59:34.990Z,62.60
2022-10-29T16:02:10.388Z,62.41
2022-10-29T16:04:39.834Z,61.96
2022-10-29T16:07:21.267Z,61.37
2022-10-29T16:09:55.949Z,61.26
2022-10-29T16:12:25.663Z,61.71
2022-10-29T16:14:55.066Z,61.47
2022-10-29T16:17:24.337Z,61.95
2022-10-29T16:19:53.953Z,61.91
2022-10-29T16:22:28.991Z,61.46
2022-10-29T16:24:58.775Z,61.30
2022-10-29T16:27:28.199Z,61.78
2022-10-29T16:29:57.705Z,61.75
2022-10-29T16:32:27.330Z,61.50
2022-10-29T16:34:56.704Z,61.69
2022-10-29T16:37:27.461Z,61.60
2022-10-29T16:39:56.958Z,62.16
2022-10-29T16:42:31.790Z,62.36
2022-10-29T16:45:01.292Z,62.26
2022-10-29T16:47:31.002Z,61.94
2022-10-29T16:50:00.408Z,61.98
2022-10-29T16:52:32.832Z,62.39
2022-10-29T16:55:02.224Z,61.81
2022-10-29T16:57:31.812Z,61.80
2022-10-29T17:00:01.016Z,61.58
2022-10-29T17:02:30.552Z,61.93
2022-10-29T17:04:59.760Z,61.78
2022-10-29T17:07:30.398Z,61.53
2022-10-29T17:09:59.932Z,62.28
2022-10-29T17:12:29.468Z,62.22
2022-10-29T17:14:58.816Z,62.33
2022-10-29T17:17:30.764Z,62.06
2022-10-29T17:20:00.184Z,61.88
2022-10-29T17:22:31.090Z,62.67
2022-10-29T17:25:00.410Z,62.51
2022-10-29T17:27:29.864Z,63.30
2022-10-29T17:29:59.234Z,63.76
2022-10-29T17:32:32.714Z,63.08
2022-10-29T17:35:02.346Z,62.97
2022-10-29T17:37:33.319Z,63.53
2022-10-29T17:40:06.827Z,63.40
2022-10-29T17:42:37.412Z,63.83
2022-10-29T17:45:08.074Z,63.18
2022-10-29T17:47:37.497Z,63.95
2022-10-29T17:50:07.664Z,63.77
2022-10-29T17:52:38.493Z,63.81
2022-10-29T17:55:08.751Z,63.37
2022-10-29T17:57:38.381Z,63.74
2022-10-29T18:00:08.967Z,64.05
2022-10-29T18:02:38.554Z,64.19
2022-10-29T18:05:09.026Z,64.04
2022-10-29T18:07:39.962Z,63.74
2022-10-29T18:10:10.504Z,64.12
2022-10-29T18:12:40.033Z,64.20
2022-10-29T18:15:10.494Z,64.29
2022-10-29T18:17:40.537Z,64.03
2022-10-29T18:20:11.181Z,63.93
2022-10-29T18:22:42.231Z,64.56
2022-10-29T18:25:12.099Z,64.22
2022-10-29T18:27:41.964Z,64.12
2022-10-29T18:30:12.060Z,64.63
2022-10-29T18:32:41.319Z,64.92
2022-10-29T18:35:11.474Z,64.26
2022-10-29T18:37:42.133Z,64.32
2022-10-29T18:40:13.213Z,64.50
2022-10-29T18:42:42.432Z,64.45
2022-10-29T18:45:12.752Z,64.94
2022-10-29T18:47:42.371Z,64.60
2022-10-29T18:50:11.963Z,64.38
2022-10-29T18:52:42.799Z,64.62
2022-10-29T18:55:12.304Z,64.92
2022-10-29T18:57:41.632Z,65.13
2022-10-29T19:00:12.445Z,64.76
2022-10-29T19:02:41.968Z,64.61
2022-10-29T19:05:11.586Z,64.89
2022-10-29T19:07:42.212Z,64.49
2022-10-29T19:10:12.089Z,64.54
2022-10-29T19:12:41.328Z,64.66
2022-10-29T19:15:11.544Z,64.09
2022-10-29T19:17:41.623Z,64.29
2022-10-29T19:20:12.419Z,64.16
2022-10-29T19:22:43.108Z,64.66
2022-10-29T19:25:12.637Z,64.66
2022-10-29T19:27:42.348Z,64.01
2022-10-29T19:30:13.161Z,64.46
2022-10-29T19:32:42.487Z,64.39
2022-10-29T19:35:12.119Z,64.59
2022-10-29T19:37:43.354Z,63.99
2022-10-29T19:40:13.118Z,63.58
2022-10-29T19:42:42.606Z,63.88
2022-10-29T19:45:12.370Z,64.12
2022-10-29T19:47:41.838Z,63.85
2022-10-29T19:50:11.604Z,63.65
2022-10-29T19:52:42.533Z,63.47
2022-10-29T19:55:13.839Z,63.89
2022-10-29T19:57:43.369Z,63.86
2022-10-29T20:00:16.772Z,63.73
2022-10-29T20:02:47.458Z,63.43
2022-10-29T20:05:16.958Z,63.65
2022-10-29T20:07:49.211Z,63.99
2022-10-29T20:10:18.584Z,63.79
2022-10-29T20:12:48.104Z,63.39
2022-10-29T20:15:17.548Z,63.14
2022-10-29T20:17:47.042Z,63.21
2022-10-29T20:20:17.354Z,63.50
2022-10-29T20:22:50.210Z,63.36
2022-10-29T20:25:24.063Z,63.64
2022-10-29T20:27:53.865Z,63.72
2022-10-29T20:30:23.371Z,63.34
2022-10-29T20:32:52.808Z,63.49
2022-10-29T20:35:22.579Z,63.57
2022-10-29T20:37:53.189Z,63.65
2022-10-29T20:40:24.068Z,63.97
2022-10-29T20:42:54.074Z,63.79
2022-10-29T20:45:23.290Z,64.00
2022-10-29T20:47:52.687Z,63.79
2022-10-29T20:50:22.199Z,63.57
2022-10-29T20:52:53.778Z,63.04
2022-10-29T20:55:23.346Z,62.70
2022-10-29T20:57:52.529Z,63.20
2022-10-29T21:00:22.295Z,63.10
2022-10-29T21:02:51.500Z,63.23
2022-10-29T21:05:20.767Z,62.88
2022-10-29T21:07:50.393Z,63.16
2022-10-29T21:10:21.090Z,62.89
2022-10-29T21:12:50.610Z,62.52
2022-10-29T21:15:19.933Z,62.96
2022-10-29T21:17:49.103Z,63.00
2022-10-29T21:20:18.692Z,63.27
2022-10-29T21:22:47.905Z,62.77
2022-10-29T21:25:17.384Z,63.01
2022-10-29T21:27:48.322Z,63.39
2022-10-29T21:30:17.744Z,62.61
2022-10-29T21:32:47.249Z,63.03
2022-10-29T21:35:16.774Z,62.86
2022-10-29T21:37:46.109Z,62.16
2022-10-29T21:40:15.658Z,62.87
2022-10-29T21:42:44.891Z,62.61
2022-10-29T21:45:15.685Z,62.81
2022-10-29T21:47:45.213Z,62.19
2022-10-29T21:50:14.366Z,63.15
2022-10-29T21:52:43.697Z,63.42
2022-10-29T21:55:14.014Z,62.53
2022-10-29T21:57:45.373Z,62.59
2022-10-29T22:00:17.741Z,61.45
2022-10-29T22:02:47.053Z,62.38
2022-10-29T22:05:16.728Z,62.79
2022-10-29T22:07:46.662Z,62.80
2022-10-29T22:10:16.170Z,62.61
2022-10-29T22:12:45.378Z,62.80
2022-10-29T22:15:16.138Z,62.79
2022-10-29T22:17:45.707Z,62.17
2022-10-29T22:20:15.139Z,62.04
2022-10-29T22:22:44.860Z,62.90
2022-10-29T22:25:23.038Z,63.62
2022-10-29T22:27:52.364Z,63.61
2022-10-29T22:30:23.156Z,63.19
2022-10-29T22:32:52.390Z,63.35
2022-10-29T22:35:24.703Z,63.01
2022-10-29T22:37:55.688Z,62.75
2022-10-29T22:40:25.098Z,64.12
2022-10-29T22:42:54.859Z,63.88
2022-10-29T22:45:30.640Z,63.63
2022-10-29T22:48:00.206Z,63.54
2022-10-29T22:50:29.451Z,63.35
2022-10-29T22:52:59.182Z,63.41
2022-10-29T22:55:28.769Z,62.55
2022-10-29T22:57:58.299Z,63.95
2022-10-29T23:00:28.991Z,63.72
2022-10-29T23:02:58.546Z,63.06
2022-10-29T23:05:28.208Z,63.28
2022-10-29T23:07:57.554Z,63.26
2022-10-29T23:10:26.864Z,62.95
2022-10-29T23:12:56.626Z,62.51
2022-10-29T23:15:27.269Z,62.83
2022-10-29T23:17:56.937Z,63.37
2022-10-29T23:20:26.413Z,63.37
2022-10-29T23:22:55.844Z,63.07
2022-10-29T23:25:25.578Z,63.25
2022-10-29T23:27:56.210Z,63.19
2022-10-29T23:30:25.507Z,63.10
2022-10-29T23:32:56.656Z,63.34
2022-10-29T23:35:27.854Z,63.53
2022-10-29T23:37:57.562Z,64.23
2022-10-29T23:40:27.211Z,64.18
2022-10-29T23:42:56.447Z,64.43
2022-10-29T23:45:25.912Z,63.85
2022-10-29T23:47:57.016Z,64.01
2022-10-29T23:50:26.673Z,64.14
2022-10-29T23:52:56.347Z,63.70
2022-10-29T23:55:29.080Z,63.90
2022-10-29T23:57:58.697Z,64.20
